Latest Weather Observations for Westmere

IDV60801

Issued at 9:02 am EST Wednesday 24 July 2024 (issued every 10 minutes, with the page automatically refreshed every 10 minutes)

About weather observations | Map of weather stations | Latest weather observations for VIC | Other Formats
Station Details ID: 089112 Name: WESTMERE Lat: -37.71 Lon: 142.94 Height: 226.0 m
Data from the previous 72 hours. | See also: Recent months at Westmere
Date/Time
EST
Temp
°C
App
Temp
°C
Dew
Point
°C
Rel
Hum
%
Delta-T
°C
Wind Press
QNH
hPa
Press
MSL
hPa
Rain since
9am
mm
Dir  Spd
km/h
Gust
km/h
Spd
kts
Gust
kts
24/09:00am 7.9 2.9 3.6 74 1.9 N 19 28 10 15 1016.6 1017.0 0.0
24/08:30am 7.4 0.9 2.9 73 1.9 N 26 32 14 17 1016.6 1017.0 0.0
24/08:00am 7.3 1.6 2.6 72 2.0 N 22 32 12 17 1016.9 1017.3 0.0
24/07:30am 7.2 1.8 2.7 73 1.9 NNE 20 28 11 15 1016.8 1017.2 0.0
24/07:00am 7.8 1.7 2.5 69 2.2 NNE 24 35 13 19 1016.6 1017.0 0.0
24/06:30am 7.8 1.2 2.3 68 2.3 NNE 26 33 14 18 1016.5 1016.9 0.0
24/06:00am 8.3 1.0 2.3 66 2.5 N 30 39 16 21 1016.3 1016.7 0.0
24/05:30am 9.0 1.6 2.1 62 2.9 NNE 30 39 16 21 1016.4 1016.8 0.0
24/05:00am 9.3 2.3 1.9 60 3.1 NNE 28 37 15 20 1016.5 1016.9 0.0
24/04:30am 9.2 3.7 1.9 60 3.1 NNE 20 28 11 15 1016.7 1017.1 0.0
24/04:00am 9.2 4.7 2.1 61 3.0 N 15 20 8 11 1016.8 1017.2 0.0
24/03:30am 9.0 3.1 1.9 61 3.0 NNE 22 30 12 16 1016.8 1017.2 0.0
24/03:00am 8.2 2.3 2.0 65 2.6 NNE 22 26 12 14 1016.8 1017.2 0.0
24/02:30am 8.8 1.4 1.7 61 3.0 NNE 30 41 16 22 1016.8 1017.2 0.0
24/02:00am 8.7 2.4 1.8 62 2.9 NNE 24 33 13 18 1016.9 1017.3 0.0
24/01:30am 8.9 2.3 2.0 62 2.9 NNE 26 37 14 20 1017.3 1017.7 0.0
24/01:00am 7.8 1.6 2.1 67 2.4 NNE 24 30 13 16 1017.5 1017.9 0.0
24/12:30am 7.7 2.3 2.4 69 2.2 NE 20 26 11 14 1018.0 1018.4 0.0
24/12:00am 7.6 3.2 2.7 71 2.1 N 15 22 8 12 1018.1 1018.5 0.0
 
Date/Time
EST
Temp
°C
App
Temp
°C
Dew
Point
°C
Rel
Hum
%
Delta-T
°C
Wind Press
QNH
hPa
Press
MSL
hPa
Rain since
9am
mm
Dir  Spd
km/h
Gust
km/h
Spd
kts
Gust
kts
23/11:30pm 8.5 2.8 2.9 68 2.4 NNE 22 28 12 15 1018.3 1018.7 0.0
23/11:00pm 8.7 3.6 3.1 68 2.4 NNE 19 24 10 13 1018.6 1019.0 0.0
23/10:30pm 9.1 3.5 3.3 67 2.5 NNE 22 30 12 16 1018.6 1019.0 0.0
23/10:00pm 8.7 4.1 3.5 70 2.3 N 17 24 9 13 1018.9 1019.3 0.0
23/09:30pm 8.7 4.4 3.5 70 2.3 N 15 20 8 11 1019.1 1019.5 0.0
23/09:00pm 9.3 4.7 3.7 68 2.5 N 17 20 9 11 1019.3 1019.7 0.0
23/08:30pm 9.4 4.3 3.2 65 2.7 N 19 24 10 13 1019.2 1019.6 0.0
23/08:00pm 9.8 4.5 3.1 63 2.9 NNE 20 28 11 15 1019.2 1019.6 0.0
23/07:30pm 10.2 4.5 3.0 61 3.1 NNE 22 30 12 16 1019.1 1019.5 0.0
23/07:00pm 10.6 5.4 3.6 62 3.1 N 20 26 11 14 1019.1 1019.5 0.0
23/06:30pm 9.2 5.0 4.0 70 2.3 NNE 15 19 8 10 1018.9 1019.3 0.0
23/06:00pm 9.7 5.7 4.7 71 2.3 NNE 15 19 8 10 1018.9 1019.3 0.0
23/05:30pm 11.7 6.7 4.7 62 3.2 N 20 24 11 13 1018.9 1019.3 0.0
23/05:00pm 13.2 7.9 5.1 58 3.8 N 22 30 12 16 1018.9 1019.3 0.0
23/04:30pm 14.0 8.3 5.1 55 4.2 NNE 24 35 13 19 1018.9 1019.3 0.0
23/04:00pm 14.6 8.5 4.6 51 4.7 N 26 35 14 19 1019.1 1019.5 0.0
23/03:30pm 15.0 8.7 5.5 53 4.6 NNW 28 41 15 22 1019.4 1019.8 0.0
23/03:00pm 14.9 8.7 6.0 55 4.3 NNE 28 39 15 21 1019.5 1019.9 0.0
23/02:30pm 14.9 8.2 5.4 53 4.6 NNE 30 41 16 22 1019.6 1020.0 0.0
23/02:00pm 14.1 7.5 6.2 59 3.8 NNE 30 43 16 23 1019.9 1020.3 0.0
23/01:30pm 13.4 6.1 5.3 58 3.8 N 33 43 18 23 1020.1 1020.5 0.0
23/01:00pm 13.6 5.9 5.3 57 3.9 NNW 35 46 19 25 1020.4 1020.8 0.0
23/12:30pm 14.2 7.6 6.1 58 3.9 NNW 30 44 16 24 1020.9 1021.4 0.0
23/12:00pm 13.9 6.8 6.5 61 3.6 N 33 44 18 24 1021.4 1021.9 0.0
23/11:30am 13.4 6.7 7.2 66 3.1 NNE 32 44 17 24 1021.8 1022.2 0.0
23/11:00am 12.7 5.9 7.0 68 2.8 NNE 32 43 17 23 1022.3 1022.7 0.0
23/10:30am 11.8 6.3 7.7 76 2.0 NNE 26 35 14 19 1022.5 1022.9 0.0
23/10:00am 10.5 5.9 6.6 77 1.8 NNE 20 28 11 15 1022.5 1022.9 0.0
23/09:30am 9.6 3.8 6.1 79 1.6 N 26 33 14 18 1022.3 1022.7 0.0
23/09:00am 8.5 3.0 5.8 83 1.2 N 24 30 13 16 1022.1 1022.5 0.0
23/08:30am 7.7 2.5 5.5 86 1.0 N 22 28 12 15 1022.0 1022.4 0.0
23/08:00am 7.6 2.7 5.2 85 1.1 N 20 28 11 15 1022.2 1022.6 0.0
23/07:30am 7.5 3.3 5.5 87 0.9 N 17 22 9 12 1022.2 1022.6 0.0
23/07:00am 7.0 2.7 5.3 89 0.8 N 17 20 9 11 1022.0 1022.4 0.0
23/06:30am 7.9 3.4 5.9 87 0.9 N 19 22 10 12 1021.8 1022.2 0.0
23/06:00am 7.7 2.9 5.8 88 0.9 N 20 28 11 15 1021.4 1021.9 0.0
23/05:30am 7.5 2.9 5.8 89 0.8 NNE 19 22 10 12 1021.5 1022.0 0.0
23/05:00am 7.6 3.4 5.9 89 0.8 N 17 20 9 11 1021.5 1022.0 0.0
23/04:30am 7.7 3.2 6.3 91 0.6 N 19 20 10 11 1021.5 1022.0 0.0
23/04:00am 8.0 3.6 6.5 90 0.7 N 19 20 10 11 1021.6 1022.1 0.0
23/03:30am 9.0 5.0 6.8 86 1.0 NNE 17 22 9 12 1021.6 1022.1 0.0
23/03:00am 9.8 5.3 7.1 83 1.3 NE 20 26 11 14 1021.5 1022.0 0.0
23/02:30am 9.1 5.2 7.2 88 0.9 NNE 17 24 9 13 1021.9 1022.3 0.0
23/02:00am 7.5 4.5 5.8 89 0.8 NNE 11 13 6 7 1022.1 1022.5 0.0
23/01:30am 10.3 7.6 7.5 83 1.4 NNE 11 15 6 8 1022.2 1022.6 0.0
23/01:00am 11.8 8.5 7.9 77 1.9 NW 15 20 8 11 1022.3 1022.7 0.0
23/12:30am 12.1 8.4 8.0 76 2.0 NNW 17 26 9 14 1022.3 1022.7 0.0
23/12:00am 12.2 7.6 8.1 76 2.0 NNW 22 30 12 16 1022.5 1022.9 0.0
 
Date/Time
EST
Temp
°C
App
Temp
°C
Dew
Point
°C
Rel
Hum
%
Delta-T
°C
Wind Press
QNH
hPa
Press
MSL
hPa
Rain since
9am
mm
Dir  Spd
km/h
Gust
km/h
Spd
kts
Gust
kts
22/11:30pm 12.2 8.2 8.3 77 1.9 NW 19 26 10 14 1022.7 1023.1 0.0
22/11:00pm 12.2 8.0 8.3 77 1.9 NW 20 28 11 15 1022.8 1023.2 0.0
22/10:30pm 12.1 8.9 8.6 79 1.8 NNW 15 24 8 13 1022.6 1023.0 0.0
22/10:00pm 12.5 8.7 9.0 79 1.8 NNW 19 26 10 14 1022.7 1023.1 0.0
22/09:30pm 12.6 9.8 10.1 85 1.3 N 15 22 8 12 1022.6 1023.0 0.0
22/09:00pm 12.1 9.8 10.3 89 0.9 NE 13 15 7 8 1022.5 1022.9 0.0
22/08:30pm 12.1 9.7 10.2 88 1.0 N 13 15 7 8 1022.5 1022.9 0.0
22/08:00pm 12.3 10.3 10.2 87 1.1 NNW 11 17 6 9 1022.2 1022.6 0.0
22/07:30pm 12.3 10.3 10.0 86 1.2 N 11 17 6 9 1022.0 1022.4 0.0
22/07:00pm 12.6 10.2 10.1 85 1.3 N 13 17 7 9 1021.9 1022.3 0.0
22/06:30pm 12.8 9.6 10.0 83 1.5 NNW 17 22 9 12 1021.5 1022.0 0.0
22/06:00pm 12.7 10.0 10.2 85 1.3 N 15 19 8 10 1021.2 1021.7 0.0
22/05:30pm 12.8 10.1 10.3 85 1.3 N 15 20 8 11 1021.3 1021.8 0.0
22/05:00pm 12.9 10.6 10.6 86 1.2 NNE 13 19 7 10 1021.2 1021.7 0.0
22/04:30pm 13.7 11.2 10.9 83 1.5 N 15 20 8 11 1020.9 1021.4 0.0
22/04:00pm 13.9 10.7 11.1 83 1.5 N 19 26 10 14 1020.7 1021.1 0.0
22/03:30pm 13.5 10.6 10.9 84 1.4 NNW 17 24 9 13 1020.8 1021.2 0.0
22/03:00pm 13.4 10.5 10.9 85 1.3 NNW 17 26 9 14 1020.8 1021.2 0.0
22/02:30pm 13.6 10.2 11.3 86 1.2 NNW 20 30 11 16 1020.7 1021.1 0.0
22/02:00pm 13.5 10.2 10.9 84 1.4 NNW 19 28 10 15 1020.6 1021.0 0.0
22/01:30pm 13.4 9.8 10.6 83 1.5 NNW 20 28 11 15 1020.6 1021.0 0.0
22/01:00pm 13.2 9.3 10.9 86 1.2 N 22 28 12 15 1021.0 1021.5 0.0
22/12:30pm 13.8 10.3 11.0 83 1.5 NNW 20 28 11 15 1021.3 1021.8 0.0
22/12:00pm 13.1 9.5 10.6 85 1.3 NW 20 30 11 16 1021.9 1022.3 0.0
22/11:30am 13.6 9.3 10.8 83 1.5 NW 24 33 13 18 1022.0 1022.4 0.0
22/11:00am 13.3 9.9 10.7 84 1.4 NNW 19 24 10 13 1022.0 1022.4 0.0
22/10:30am 12.5 8.8 10.2 86 1.2 NNW 20 28 11 15 1022.0 1022.4 0.0
22/10:00am 12.0 8.8 10.1 88 1.0 NNW 17 28 9 15 1021.9 1022.3 0.0
22/09:30am 11.2 7.5 9.5 89 0.9 NNW 19 26 10 14 1021.4 1021.9 0.0
22/09:00am 10.7 7.4 9.6 93 0.6 NNW 17 24 9 13 1021.0 1021.5 5.2
22/08:30am 10.2 6.4 9.0 92 0.6 NNE 19 26 10 14 1020.6 1021.0 5.2
22/08:00am 10.4 6.6 9.0 91 0.7 N 19 24 10 13 1020.2 1020.6 5.2
22/07:30am 10.2 6.3 8.8 91 0.7 NE 19 22 10 12 1020.1 1020.5 5.2
22/07:00am 10.2 6.7 8.8 91 0.7 N 17 22 9 12 1020.1 1020.5 5.2
22/06:30am 10.0 6.0 8.4 90 0.8 NNW 19 24 10 13 1019.8 1020.2 5.2
22/06:00am 9.8 6.3 8.6 92 0.6 NNW 17 20 9 11 1019.4 1019.8 5.0
22/05:30am 9.2 6.3 8.1 93 0.5 NNW 13 17 7 9 1019.3 1019.7 5.0
22/05:00am 10.2 7.0 8.3 88 0.9 NNW 15 22 8 12 1018.9 1019.3 5.0
22/04:30am 10.2 6.7 8.6 90 0.8 NW 17 22 9 12 1018.8 1019.2 5.0
22/04:00am 10.4 7.0 9.2 92 0.6 NNW 17 24 9 13 1018.9 1019.3 5.0
22/03:30am 10.3 7.3 9.2 93 0.6 NNW 15 19 8 10 1019.0 1019.4 5.0
22/03:00am 10.8 7.1 9.4 91 0.7 NNW 19 24 10 13 1019.0 1019.4 5.0
22/02:30am 10.4 7.0 9.3 93 0.6 NNW 17 20 9 11 1019.1 1019.5 5.0
22/02:00am 10.2 7.2 9.3 94 0.5 N 15 19 8 10 1019.0 1019.4 5.0
22/01:30am 10.4 6.7 9.3 93 0.6 NE 19 24 10 13 1018.9 1019.3 5.0
22/01:00am 10.4 7.9 9.6 95 0.4 N 13 17 7 9 1019.0 1019.4 5.0
22/12:30am 10.5 7.6 9.7 95 0.4 NNW 15 20 8 11 1019.3 1019.7 4.8
22/12:00am 10.5 7.6 9.7 95 0.4 NNW 15 19 8 10 1019.4 1019.8 4.6
 
Date/Time
EST
Temp
°C
App
Temp
°C
Dew
Point
°C
Rel
Hum
%
Delta-T
°C
Wind Press
QNH
hPa
Press
MSL
hPa
Rain since
9am
mm
Dir  Spd
km/h
Gust
km/h
Spd
kts
Gust
kts
21/11:30pm 10.6 7.4 9.8 95 0.4 NNW 17 20 9 11 1019.5 1019.9 3.6
21/11:00pm 10.6 7.3 9.7 94 0.5 NNW 17 22 9 12 1019.3 1019.7 3.4
21/10:30pm 10.9 7.1 9.7 92 0.6 NNW 20 28 11 15 1019.0 1019.4 3.2
21/10:00pm 10.9 7.1 9.2 89 0.9 NNW 19 24 10 13 1018.9 1019.3 3.0
21/09:30pm 11.0 7.2 9.1 88 1.0 N 19 26 10 14 1018.8 1019.2 3.0
21/09:00pm 11.6 7.6 9.2 85 1.2 NNW 20 28 11 15 1018.7 1019.1 3.0
21/08:30pm 11.4 7.5 9.3 87 1.1 NNW 20 26 11 14 1018.4 1018.8 3.0
21/08:00pm 10.7 8.1 9.3 91 0.7 NNE 13 17 7 9 1018.4 1018.8 3.0
21/07:30pm 11.1 7.8 9.7 91 0.7 NW 17 22 9 12 1018.4 1018.8 3.0
21/07:00pm 11.3 9.2 9.6 89 0.9 NNW 11 13 6 7 1018.1 1018.5 3.0
21/06:30pm 11.6 8.7 9.7 88 1.0 NNW 15 22 8 12 1017.9 1018.3 3.0
21/06:00pm 11.4 8.9 9.8 90 0.8 NNW 13 19 7 10 1017.6 1018.0 3.0
21/05:30pm 11.4 9.3 9.8 90 0.8 N 11 15 6 8 1017.5 1017.9 3.0
21/05:00pm 11.7 9.8 10.4 92 0.7 N 11 13 6 7 1017.3 1017.7 3.0
21/04:30pm 11.6 9.4 10.7 94 0.5 NNE 13 17 7 9 1017.2 1017.5 3.0
21/04:00pm 11.6 8.9 10.3 92 0.7 NNW 15 24 8 13 1017.2 1017.5 2.6
21/03:30pm 11.4 9.1 10.5 94 0.5 NNW 13 19 7 10 1017.0 1017.4 2.4
21/03:00pm 11.2 10.0 10.4 95 0.4 NNW 7 11 4 6 1017.2 1017.5 2.2
21/02:30pm 11.3 8.2 10.2 93 0.6 NW 17 22 9 12 1016.9 1017.3 1.0
21/02:00pm 11.8 8.2 10.0 89 0.9 NNW 19 22 10 12 1016.8 1017.2 0.2
21/01:30pm 12.0 8.2 9.7 86 1.2 NNW 20 26 11 14 1017.0 1017.4 0.0
21/01:00pm 12.4 8.5 9.4 82 1.5 NW 20 32 11 17 1017.3 1017.7 0.0
21/12:30pm 12.3 8.4 9.5 83 1.4 NW 20 32 11 17 1017.6 1018.0 0.0
21/12:00pm 12.2 7.5 9.2 82 1.5 NW 24 32 13 17 1017.8 1018.2 0.0
21/11:30am 12.0 7.9 8.8 81 1.6 NW 20 28 11 15 1018.1 1018.5 0.0
21/11:00am 12.3 7.6 9.3 82 1.5 NW 24 35 13 19 1018.2 1018.6 0.0
21/10:30am 12.2 8.3 9.6 84 1.3 NW 20 28 11 15 1018.1 1018.5 0.0
21/10:00am 10.7 8.0 9.0 89 0.9 N 13 22 7 12 1017.9 1018.3 0.0
21/09:30am 8.5 4.7 7.4 93 0.5 NNE 17 20 9 11 1018.0 1018.4 0.0

Other formats

Comma delimited format used in spreadsheet applications
http://www.bom.gov.au/fwo/IDV60801/IDV60801.95840.axf

JavaScript Object Notation format (JSON) in row-major order
http://www.bom.gov.au/fwo/IDV60801/IDV60801.95840.json

Data quality

Most of these data are generated automatically and are frequently updated. Quality checks on data are not normally performed. It is possible for incorrect values to appear. Refer to information at About Latest Weather Observations and please check the disclaimer before using these data.